Time;durP1;ratioP1;P1;durP2;ratioP2;P2;SDS_P1;SDS_P2;PMS_P1;PMS_P2;Temp;Humidity;BMP_temperature;BMP_pressure;BME280_temperature;BME280_humidity;BME280_pressure;Samples;Min_cycle;Max_cycle;Signal;HPM_P1;HPM_P2
2022/06/08 00:00:24;;;;;;;5.93;2.90;;;;;;;20.25;81.61;97498.34;5390351;26;20075;-77
2022/06/08 00:03:06;;;;;;;8.75;2.97;;;;;;;20.97;78.27;97518.78;5390916;26;20106;-77
2022/06/08 00:05:33;;;;;;;6.28;2.83;;;;;;;21.70;74.55;97524.13;5370710;26;20102;-77
2022/06/08 00:08:01;;;;;;;7.12;3.03;;;;;;;21.27;75.79;97531.66;5390231;26;20081;-77
2022/06/08 00:10:28;;;;;;;6.55;2.97;;;;;;;21.61;75.21;97539.78;5391298;26;20102;-77
2022/06/08 00:12:55;;;;;;;16.67;4.12;;;;;;;21.22;77.04;97544.34;5392238;26;20052;-77
2022/06/08 00:15:22;;;;;;;9.60;3.30;;;;;;;21.32;77.22;97539.09;5390677;26;20107;-76
2022/06/08 00:17:49;;;;;;;7.60;3.45;;;;;;;21.71;76.28;97526.59;5390325;26;20108;-77
2022/06/08 00:20:16;;;;;;;6.90;3.35;;;;;;;21.77;75.70;97526.00;5390270;26;20066;-76
2022/06/08 00:22:44;;;;;;;7.15;3.42;;;;;;;22.13;74.67;97529.53;5390652;26;20464;-76
2022/06/08 00:25:11;;;;;;;7.47;3.62;;;;;;;21.77;76.63;97535.66;5370663;26;20111;-77
2022/06/08 00:27:38;;;;;;;5.85;2.67;;;;;;;22.18;75.00;97529.88;5391346;26;20060;-76
2022/06/08 00:30:07;;;;;;;6.20;3.05;;;;;;;21.62;76.11;97525.69;5391703;26;20069;-77
2022/06/08 00:32:34;;;;;;;5.47;2.50;;;;;;;21.97;75.95;97513.56;5391956;26;20052;-77
2022/06/08 00:35:01;;;;;;;6.75;2.90;;;;;;;20.69;80.92;97502.97;5391423;26;20106;-77
2022/06/08 00:37:28;;;;;;;5.32;2.40;;;;;;;21.37;78.65;97492.25;5391627;26;20395;-77
2022/06/08 00:39:55;;;;;;;5.93;2.67;;;;;;;20.36;83.90;97487.69;5371554;26;20119;-77
2022/06/08 00:42:23;;;;;;;4.97;2.30;;;;;;;20.05;84.86;97489.66;5391436;26;20547;-77
2022/06/08 00:44:59;;;;;;;5.25;2.37;;;;;;;20.45;83.28;97492.13;5391788;26;20152;-76
2022/06/08 00:47:29;;;;;;;5.87;2.30;;;;;;;20.56;83.01;97504.25;5391728;26;20060;-77
2022/06/08 00:49:57;;;;;;;4.78;2.45;;;;;;;19.81;86.63;97497.91;5391336;26;20202;-77
2022/06/08 00:52:26;;;;;;;5.40;2.47;;;;;;;20.89;81.32;97493.25;5391739;26;20123;-77
2022/06/08 00:54:58;;;;;;;3.53;1.90;;;;;;;20.58;82.08;97483.97;5391579;26;20131;-77
2022/06/08 00:57:29;;;;;;;2.58;1.70;;;;;;;20.63;81.61;97489.59;5371154;26;20080;-77
2022/06/08 01:00:10;;;;;;;3.35;1.70;;;;;;;21.12;80.03;97488.47;5371557;26;20114;-77
2022/06/08 01:02:38;;;;;;;3.78;1.60;;;;;;;19.85;84.36;97466.06;5391400;26;20489;-76
2022/06/08 01:05:28;;;;;;;3.70;1.65;;;;;;;19.90;84.86;97476.97;5391671;26;20104;-76
2022/06/08 01:08:02;;;;;;;4.85;1.60;;;;;;;20.13;83.99;97479.31;5391756;26;20078;-77
2022/06/08 01:10:37;;;;;;;4.03;1.70;;;;;;;20.26;82.96;97479.84;5371217;26;20118;-76
2022/06/08 01:13:05;;;;;;;4.12;1.80;;;;;;;20.10;83.76;97474.38;5391625;26;20047;-78
2022/06/08 01:15:33;;;;;;;3.08;1.65;;;;;;;20.07;84.48;97479.84;5391663;26;20122;-77
2022/06/08 01:18:00;;;;;;;5.20;1.98;;;;;;;20.33;83.40;97475.72;5370717;26;20361;-77
2022/06/08 01:20:27;;;;;;;2.92;1.75;;;;;;;20.03;84.14;97476.69;5391425;26;20127;-77
2022/06/08 01:22:54;;;;;;;4.07;1.92;;;;;;;21.02;79.76;97467.53;5391603;26;20062;-77
2022/06/08 01:25:21;;;;;;;3.33;1.75;;;;;;;20.08;83.34;97473.66;5371171;26;20127;-77
2022/06/08 01:28:04;;;;;;;3.15;1.58;;;;;;;20.13;83.73;97466.22;5391565;26;20111;-77
2022/06/08 01:30:55;;;;;;;3.47;1.60;;;;;;;20.43;82.27;97458.22;5391293;26;20075;-77
2022/06/08 01:33:54;;;;;;;3.12;1.80;;;;;;;19.89;85.70;97446.53;5390685;26;20108;-77
2022/06/08 01:36:33;;;;;;;4.45;1.90;;;;;;;19.81;85.52;97442.94;5372146;26;20409;-77
2022/06/08 01:39:07;;;;;;;3.50;1.73;;;;;;;20.32;82.94;97440.00;5390746;26;20150;-77
2022/06/08 01:41:51;;;;;;;3.40;1.80;;;;;;;20.26;82.73;97435.31;5391665;26;20130;-77
2022/06/08 01:45:28;;;;;;;3.70;1.62;;;;;;;20.10;83.14;97442.94;5391257;26;20091;-77
2022/06/08 01:47:47;;;;;;;3.20;1.67;;;;;;;19.61;86.57;97439.50;5391485;26;20461;-77
2022/06/08 01:50:48;;;;;;;3.30;1.80;;;;;;;19.23;87.68;97441.03;5391385;26;20112;-77
2022/06/08 01:53:26;;;;;;;3.60;1.80;;;;;;;20.04;84.47;97435.62;5391189;26;20146;-77
2022/06/08 01:56:27;;;;;;;4.28;1.60;;;;;;;19.58;84.98;97427.50;5371527;26;20047;-77
2022/06/08 01:59:21;;;;;;;3.42;1.60;;;;;;;19.33;86.40;97430.59;5371067;26;20193;-77
2022/06/08 02:02:17;;;;;;;3.72;1.65;;;;;;;20.18;82.53;97427.34;5391488;26;20103;-77
2022/06/08 02:05:21;;;;;;;4.45;1.77;;;;;;;19.50;85.15;97416.03;5382319;26;20078;-77
2022/06/08 02:08:37;;;;;;;3.10;1.70;;;;;;;19.71;84.74;97421.19;5318442;26;20156;-77
2022/06/08 02:11:16;;;;;;;4.22;1.87;;;;;;;19.22;86.72;97425.47;5343618;26;20070;-77
2022/06/08 02:13:48;;;;;;;3.62;1.60;;;;;;;19.74;84.08;97426.94;5390910;26;20072;-77
2022/06/08 02:16:24;;;;;;;2.42;1.37;;;;;;;20.30;81.60;97426.19;5391494;26;20124;-77
2022/06/08 02:18:56;;;;;;;2.75;1.48;;;;;;;20.37;80.73;97436.94;5391328;26;20052;-77
2022/06/08 02:21:28;;;;;;;2.62;1.37;;;;;;;19.50;84.58;97434.34;5370896;26;20047;-77
2022/06/08 02:24:04;;;;;;;2.95;1.60;;;;;;;20.46;80.45;97438.75;5391486;26;20056;-78
2022/06/08 02:26:37;;;;;;;2.75;1.40;;;;;;;19.58;84.63;97432.75;5391179;26;20114;-76
2022/06/08 02:29:11;;;;;;;2.33;1.30;;;;;;;19.23;86.48;97440.22;5391291;26;20139;-77
2022/06/08 02:31:50;;;;;;;2.00;1.10;;;;;;;18.54;90.51;97440.91;5371374;26;20051;-77
2022/06/08 02:34:31;;;;;;;2.80;1.42;;;;;;;18.40;92.12;97434.22;5370953;26;20322;-77
2022/06/08 02:37:20;;;;;;;3.00;1.40;;;;;;;18.62;90.68;97437.63;5391505;26;20324;-77
2022/06/08 02:39:48;;;;;;;2.62;1.70;;;;;;;18.21;92.71;97434.94;5371140;26;20800;-77
2022/06/08 02:42:23;;;;;;;2.22;1.37;;;;;;;18.44;90.96;97440.84;5390897;26;20130;-77
2022/06/08 02:44:54;;;;;;;2.75;1.17;;;;;;;18.59;89.72;97445.72;5371324;26;20073;-77
2022/06/08 02:47:31;;;;;;;2.20;1.30;;;;;;;18.92;88.60;97444.66;5391393;26;20059;-77
2022/06/08 02:50:14;;;;;;;2.92;1.48;;;;;;;19.07;87.54;97427.66;5391108;26;20141;-77
2022/06/08 02:52:43;;;;;;;2.83;1.48;;;;;;;19.00;87.07;97423.91;5391446;26;20130;-78
2022/06/08 02:55:32;;;;;;;2.20;1.10;;;;;;;19.18;85.78;97419.69;5391678;26;20104;-77
2022/06/08 02:58:08;;;;;;;1.70;1.02;;;;;;;18.51;88.57;97420.25;5392360;26;20074;-77
2022/06/08 03:00:38;;;;;;;2.53;1.30;;;;;;;18.35;91.15;97420.72;5371496;26;20408;-77
2022/06/08 03:03:16;;;;;;;1.95;1.10;;;;;;;17.99;92.66;97411.56;5370819;26;20052;-77
2022/06/08 03:05:54;;;;;;;1.70;1.10;;;;;;;19.21;86.36;97410.75;5371289;26;20810;-77
2022/06/08 03:08:21;;;;;;;2.03;0.95;;;;;;;17.87;92.01;97404.75;5371192;26;20119;-77
2022/06/08 03:10:50;;;;;;;1.55;1.00;;;;;;;17.86;92.70;97409.16;5390669;26;20562;-77
2022/06/08 03:13:22;;;;;;;2.17;1.40;;;;;;;17.96;92.08;97405.75;5371090;26;20094;-77
2022/06/08 03:15:53;;;;;;;2.17;1.10;;;;;;;18.46;89.67;97411.97;5370941;26;20079;-77
2022/06/08 03:18:20;;;;;;;3.12;1.48;;;;;;;18.19;90.04;97423.78;5390997;26;20070;-77
2022/06/08 03:20:47;;;;;;;1.95;1.20;;;;;;;18.30;90.58;97429.91;5390997;26;20127;-77
2022/06/08 03:23:15;;;;;;;3.03;1.45;;;;;;;18.02;91.72;97433.97;5390718;26;20059;-77
2022/06/08 03:25:42;;;;;;;1.37;0.98;;;;;;;18.33;90.28;97434.88;5391205;26;20112;-77
2022/06/08 03:28:09;;;;;;;5.00;1.58;;;;;;;18.14;90.14;97425.13;5391149;26;20454;-77
2022/06/08 03:30:36;;;;;;;1.73;1.30;;;;;;;18.99;86.77;97432.72;5390715;26;20079;-77
2022/06/08 03:33:02;;;;;;;3.08;1.60;;;;;;;19.02;87.15;97438.50;5391061;26;20091;-77
2022/06/08 03:35:29;;;;;;;2.12;1.23;;;;;;;18.52;89.28;97442.81;5390735;26;20068;-77
2022/06/08 03:37:58;;;;;;;3.28;1.70;;;;;;;18.33;89.90;97451.38;5390529;26;20060;-77
2022/06/08 03:40:27;;;;;;;2.80;1.50;;;;;;;17.98;92.62;97456.06;5391077;26;20536;-77
2022/06/08 03:42:54;;;;;;;3.03;1.50;;;;;;;17.81;93.91;97452.22;5390924;26;20073;-77
2022/06/08 03:45:21;;;;;;;4.32;1.90;;;;;;;18.09;92.07;97459.44;5390611;26;20128;-77
2022/06/08 03:47:50;;;;;;;3.72;1.48;;;;;;;18.16;92.36;97457.97;5391024;26;20064;-78
2022/06/08 03:50:20;;;;;;;5.97;1.87;;;;;;;18.35;90.25;97452.06;5390875;26;20107;-77
2022/06/08 03:52:53;;;;;;;4.15;2.12;;;;;;;18.23;91.83;97452.25;5390554;26;20130;-77
2022/06/08 03:55:20;;;;;;;4.12;2.00;;;;;;;18.23;92.27;97455.69;5370797;26;20123;-77
2022/06/08 03:57:48;;;;;;;4.40;2.10;;;;;;;18.47;91.38;97465.88;5390424;26;20131;-77
2022/06/08 04:00:15;;;;;;;4.35;2.20;;;;;;;18.95;88.52;97460.09;5390942;26;20112;-77
2022/06/08 04:02:43;;;;;;;4.60;1.92;;;;;;;19.22;87.05;97456.88;5391903;26;20099;-77
2022/06/08 04:05:10;;;;;;;5.37;2.05;;;;;;;20.15;82.89;97464.28;5371530;26;20060;-77
2022/06/08 04:07:37;;;;;;;4.72;2.25;;;;;;;20.24;82.25;97484.41;5391770;26;20079;-78
2022/06/08 04:10:05;;;;;;;5.18;2.03;;;;;;;20.68;79.91;97493.47;5391860;26;20060;-78
2022/06/08 04:12:32;;;;;;;4.47;1.87;;;;;;;20.66;79.45;97500.66;5391235;26;20119;-78
2022/06/08 04:14:59;;;;;;;3.72;2.00;;;;;;;20.29;79.51;97503.13;5391798;26;20380;-78
2022/06/08 04:17:26;;;;;;;4.97;2.10;;;;;;;20.77;79.16;97499.66;5391308;26;20126;-77
2022/06/08 04:19:53;;;;;;;6.37;2.37;;;;;;;20.57;79.79;97490.19;5391289;26;20048;-77
2022/06/08 04:22:21;;;;;;;5.50;2.17;;;;;;;20.43;81.35;97491.47;5391780;26;20103;-77
2022/06/08 04:24:48;;;;;;;5.20;1.87;;;;;;;20.99;77.78;97486.19;5391724;26;20068;-77
2022/06/08 04:27:15;;;;;;;4.90;1.92;;;;;;;20.61;79.26;97479.25;5391448;26;20076;-77
2022/06/08 04:29:43;;;;;;;4.72;2.17;;;;;;;20.54;80.46;97480.00;5391521;26;20115;-76
2022/06/08 04:32:11;;;;;;;4.15;1.80;;;;;;;19.73;84.58;97472.41;5391850;26;20407;-77
2022/06/08 04:34:41;;;;;;;6.22;1.83;;;;;;;19.15;87.75;97471.44;5391387;26;20128;-77
2022/06/08 04:37:08;;;;;;;5.35;2.00;;;;;;;18.78;89.75;97462.34;5391881;26;20535;-77
2022/06/08 04:39:35;;;;;;;6.12;1.90;;;;;;;18.08;94.09;97430.88;5391507;26;20108;-77
2022/06/08 04:42:03;;;;;;;5.45;1.48;;;;;;;17.61;97.91;97401.63;5391350;26;20054;-77
2022/06/08 04:44:30;;;;;;;5.82;1.87;;;;;;;17.06;100.00;97404.28;5371695;26;20083;-77
2022/06/08 04:46:57;;;;;;;5.35;2.08;;;;;;;17.20;100.00;97418.81;5391444;26;20115;-77
2022/06/08 04:49:24;;;;;;;4.85;1.67;;;;;;;17.52;100.00;97425.84;5391441;26;20169;-77
2022/06/08 04:51:51;;;;;;;3.72;1.90;;;;;;;18.04;96.74;97432.87;5391837;26;20114;-77
2022/06/08 04:54:18;;;;;;;6.30;2.30;;;;;;;18.07;95.33;97419.56;5391237;26;20085;-77
2022/06/08 04:56:45;;;;;;;3.78;1.85;;;;;;;18.92;90.90;97413.28;5391534;26;20111;-77
2022/06/08 04:59:12;;;;;;;4.07;2.08;;;;;;;18.50;92.50;97429.88;5391272;26;20115;-77
2022/06/08 05:01:39;;;;;;;6.05;2.03;;;;;;;18.36;93.81;97438.03;5391274;26;20114;-77
2022/06/08 05:04:06;;;;;;;4.12;1.60;;;;;;;18.27;94.54;97448.41;5391680;26;20115;-77
2022/06/08 05:06:33;;;;;;;3.55;1.70;;;;;;;17.97;94.85;97439.59;5391759;26;20070;-77
2022/06/08 05:09:00;;;;;;;4.40;1.45;;;;;;;17.95;96.24;97425.81;5391024;26;20107;-77
2022/06/08 05:11:27;;;;;;;4.43;1.98;;;;;;;18.24;94.51;97420.78;5391605;26;20103;-77
2022/06/08 05:13:54;;;;;;;4.85;1.83;;;;;;;17.54;99.33;97416.09;5391564;26;20052;-77
2022/06/08 05:16:21;;;;;;;4.18;1.58;;;;;;;17.99;97.97;97418.56;5390974;26;20056;-77
2022/06/08 05:18:48;;;;;;;4.00;1.65;;;;;;;17.95;96.24;97436.25;5391460;26;20327;-77
2022/06/08 05:21:15;;;;;;;3.30;1.50;;;;;;;17.92;96.90;97439.13;5391626;26;20546;-77
2022/06/08 05:23:43;;;;;;;3.20;1.58;;;;;;;18.03;95.97;97430.41;5391244;26;20457;-77
2022/06/08 05:26:12;;;;;;;2.85;1.70;;;;;;;17.85;97.25;97427.50;5391688;26;20055;-77
2022/06/08 05:28:40;;;;;;;2.47;1.45;;;;;;;18.45;93.58;97433.81;5391574;26;20048;-77
2022/06/08 05:31:09;;;;;;;2.40;1.27;;;;;;;19.00;91.55;97431.75;5391261;26;20114;-77
2022/06/08 05:33:37;;;;;;;2.92;1.50;;;;;;;19.59;86.87;97431.78;5391737;26;20091;-77
2022/06/08 05:36:05;;;;;;;3.25;1.58;;;;;;;19.58;87.05;97442.38;5391500;26;20072;-78
2022/06/08 05:38:32;;;;;;;4.18;1.70;;;;;;;19.63;85.97;97445.41;5392640;26;20071;-78
2022/06/08 05:40:59;;;;;;;2.37;1.30;;;;;;;19.75;85.38;97444.31;5392783;26;20071;-78
2022/06/08 05:43:26;;;;;;;2.92;1.42;;;;;;;20.00;84.09;97444.75;5391372;26;20438;-77
2022/06/08 05:45:53;;;;;;;4.00;1.40;;;;;;;19.67;85.89;97469.50;5391737;26;20055;-77
2022/06/08 05:48:21;;;;;;;4.30;1.58;;;;;;;18.81;89.73;97497.84;5391605;26;20056;-78
2022/06/08 05:50:48;;;;;;;6.68;1.60;;;;;;;18.86;90.34;97500.09;5390930;26;20047;-76
2022/06/08 05:53:15;;;;;;;7.62;2.20;;;;;;;19.27;89.07;97492.13;5398012;26;20049;-77
2022/06/08 05:55:43;;;;;;;5.20;1.60;;;;;;;20.72;81.76;97501.84;5400418;26;20115;-77
2022/06/08 05:58:12;;;;;;;4.37;1.70;;;;;;;21.12;79.00;97514.69;5401241;26;20056;-78
2022/06/08 06:00:40;;;;;;;2.78;1.40;;;;;;;20.97;79.34;97505.66;5406439;26;20044;-78
2022/06/08 06:03:08;;;;;;;2.90;1.25;;;;;;;20.37;82.12;97482.31;5409087;26;20039;-78
2022/06/08 06:05:38;;;;;;;3.10;1.50;;;;;;;20.17;82.99;97486.75;5402394;26;20079;-77
2022/06/08 06:08:06;;;;;;;2.62;1.27;;;;;;;20.82;79.80;97494.78;5407559;26;20059;-78
2022/06/08 06:10:34;;;;;;;2.10;1.20;;;;;;;21.34;77.62;97503.84;5407961;26;20030;-78
2022/06/08 06:13:01;;;;;;;3.50;1.35;;;;;;;20.50;81.14;97513.50;5400917;26;20091;-76
2022/06/08 06:15:28;;;;;;;5.75;1.75;;;;;;;20.90;79.16;97510.66;5401853;26;20055;-77
2022/06/08 06:17:55;;;;;;;4.32;1.60;;;;;;;21.27;78.23;97509.84;5399842;26;20048;-76
2022/06/08 06:20:22;;;;;;;4.90;1.58;;;;;;;20.83;80.41;97499.06;5397938;26;20055;-77
2022/06/08 06:22:50;;;;;;;2.60;1.27;;;;;;;21.08;78.90;97498.44;5397989;26;20106;-77
2022/06/08 06:25:17;;;;;;;1.70;1.10;;;;;;;20.28;82.20;97488.41;5397591;26;20059;-76
2022/06/08 06:27:46;;;;;;;3.25;1.40;;;;;;;19.35;86.65;97483.59;5399106;26;20024;-76
2022/06/08 06:30:14;;;;;;;1.73;0.93;;;;;;;19.06;89.05;97475.69;5400442;26;20071;-76
2022/06/08 06:32:44;;;;;;;2.37;1.20;;;;;;;18.97;90.43;97479.09;5400973;26;20101;-76
2022/06/08 06:35:23;;;;;;;3.80;1.30;;;;;;;19.00;90.39;97479.63;5401179;26;20071;-77
2022/06/08 06:37:50;;;;;;;2.30;1.10;;;;;;;19.30;89.44;97488.41;5401622;26;20068;-77
2022/06/08 06:40:17;;;;;;;2.65;1.20;;;;;;;20.03;84.91;97487.19;5401542;26;20067;-76
2022/06/08 06:42:46;;;;;;;3.15;1.30;;;;;;;19.36;88.89;97488.72;5401685;26;20036;-77
2022/06/08 06:45:13;;;;;;;1.98;1.20;;;;;;;19.74;87.00;97491.56;5402176;26;20044;-77
2022/06/08 06:47:41;;;;;;;2.55;1.15;;;;;;;19.09;90.48;97485.87;5401673;26;20068;-77
2022/06/08 06:50:11;;;;;;;2.45;1.17;;;;;;;19.28;90.66;97474.66;5402042;26;20082;-77
2022/06/08 06:52:38;;;;;;;1.58;0.90;;;;;;;19.51;90.07;97467.41;5401837;26;20024;-77
2022/06/08 06:55:06;;;;;;;1.45;1.00;;;;;;;19.16;90.89;97458.25;5401437;26;20075;-76
2022/06/08 06:57:33;;;;;;;1.30;0.73;;;;;;;19.24;91.48;97465.41;5401088;26;20195;-77
2022/06/08 07:00:00;;;;;;;2.22;0.85;;;;;;;18.94;91.63;97461.88;5398547;26;20099;-77
2022/06/08 07:02:26;;;;;;;1.33;1.08;;;;;;;18.98;92.24;97462.44;5402682;26;20024;-78
2022/06/08 07:04:53;;;;;;;2.03;1.08;;;;;;;19.09;91.35;97467.56;5399948;26;20110;-78
2022/06/08 07:07:20;;;;;;;2.65;1.10;;;;;;;18.66;94.38;97478.25;5379388;26;20087;-78
2022/06/08 07:09:48;;;;;;;1.62;0.98;;;;;;;19.61;89.00;97479.56;5401691;26;20067;-78
2022/06/08 07:12:15;;;;;;;3.40;1.17;;;;;;;20.96;82.08;97499.59;5401482;26;20079;-78
2022/06/08 07:14:42;;;;;;;3.35;1.33;;;;;;;21.32;79.88;97505.81;5398507;26;20079;-77
2022/06/08 07:17:09;;;;;;;1.10;1.00;;;;;;;21.65;78.56;97516.69;5393795;26;20055;-78
2022/06/08 07:19:43;;;;;;;1.80;1.00;;;;;;;22.27;75.08;97515.00;5396562;26;20080;-78
2022/06/08 07:22:11;;;;;;;1.30;0.98;;;;;;;22.77;72.59;97507.34;5395637;26;20024;-78
2022/06/08 07:24:38;;;;;;;2.33;0.95;;;;;;;22.77;72.40;97504.72;5393606;26;20119;-78
2022/06/08 07:27:05;;;;;;;1.33;1.00;;;;;;;23.11;71.93;97505.75;5392728;26;20620;-78
2022/06/08 07:29:33;;;;;;;1.90;1.20;;;;;;;22.43;74.00;97499.34;5373776;26;20099;-78
2022/06/08 07:32:00;;;;;;;0.98;0.88;;;;;;;22.15;75.51;97482.91;5392824;26;20191;-79
2022/06/08 07:34:28;;;;;;;3.17;1.40;;;;;;;21.57;77.21;97466.72;5394144;26;20503;-78
2022/06/08 07:36:55;;;;;;;1.92;1.10;;;;;;;21.70;78.41;97461.13;5370685;26;20076;-78
2022/06/08 07:39:23;;;;;;;2.30;1.15;;;;;;;20.45;84.34;97458.91;5392531;26;20099;-78
2022/06/08 07:41:50;;;;;;;2.05;1.27;;;;;;;20.37;86.21;97450.06;5392592;26;20418;-78
2022/06/08 07:44:18;;;;;;;1.67;1.08;;;;;;;21.01;83.30;97434.41;5392609;26;20077;-79
2022/06/08 07:46:46;;;;;;;1.27;0.98;;;;;;;22.15;80.10;97429.53;5389391;26;20108;-80
2022/06/08 07:49:37;;;;;;;2.83;0.90;;;;;;;21.88;79.87;97427.78;5370349;26;20099;-80
2022/06/08 07:52:16;;;;;;;1.35;0.82;;;;;;;22.55;76.78;97436.88;5391754;26;20650;-80
2022/06/08 07:54:44;;;;;;;1.75;1.00;;;;;;;23.49;72.84;97431.50;5391367;26;20072;-80
2022/06/08 07:57:20;;;;;;;1.95;1.00;;;;;;;23.23;74.20;97422.88;5390199;26;20058;-79
2022/06/08 07:59:48;;;;;;;1.00;0.90;;;;;;;22.54;76.57;97432.56;5392399;26;20104;-79
2022/06/08 08:02:15;;;;;;;0.98;0.90;;;;;;;23.40;72.79;97423.78;5392441;26;20106;-79
2022/06/08 08:04:43;;;;;;;2.17;0.90;;;;;;;22.32;75.89;97409.44;5392027;26;20056;-79
2022/06/08 08:07:11;;;;;;;1.87;1.05;;;;;;;21.87;76.62;97410.37;5391119;26;20075;-79
2022/06/08 08:09:38;;;;;;;1.25;0.93;;;;;;;20.82;83.33;97413.50;5391249;26;20115;-79
2022/06/08 08:12:06;;;;;;;1.58;1.15;;;;;;;20.44;84.37;97424.97;5392500;26;20063;-79
2022/06/08 08:14:33;;;;;;;1.50;1.10;;;;;;;20.93;83.04;97412.50;5391982;26;20072;-78
2022/06/08 08:17:03;;;;;;;2.75;1.30;;;;;;;20.82;84.84;97413.50;5390069;26;20127;-79
2022/06/08 08:19:32;;;;;;;1.85;1.20;;;;;;;21.27;82.07;97410.16;5390840;26;20075;-79
2022/06/08 08:22:00;;;;;;;2.20;1.35;;;;;;;21.70;80.37;97403.34;5393133;26;20060;-78
2022/06/08 08:24:27;;;;;;;2.15;1.48;;;;;;;21.48;81.95;97396.72;5393793;26;20085;-78
2022/06/08 08:26:55;;;;;;;3.15;1.52;;;;;;;21.89;80.22;97395.28;5393181;26;20107;-78
2022/06/08 08:29:24;;;;;;;2.67;1.45;;;;;;;21.91;79.66;97401.25;5393255;26;20059;-78
2022/06/08 08:31:51;;;;;;;3.22;1.60;;;;;;;22.00;78.54;97399.47;5394210;26;20056;-78
2022/06/08 08:34:18;;;;;;;3.30;1.50;;;;;;;22.07;78.44;97396.13;5394697;26;20056;-78
2022/06/08 08:36:56;;;;;;;3.45;1.48;;;;;;;22.16;77.53;97404.91;5391888;26;20067;-79
2022/06/08 08:39:24;;;;;;;2.58;1.60;;;;;;;20.57;85.47;97401.06;5394172;26;20052;-79
2022/06/08 08:44:57;;;;;;;3.28;1.80;;;;;;;22.83;77.66;97415.63;5394308;26;20060;-79
2022/06/08 08:47:42;;;;;;;3.35;1.65;;;;;;;23.50;72.18;97422.66;5373220;26;20076;-79
2022/06/08 08:50:25;;;;;;;2.58;1.60;;;;;;;24.33;69.54;97434.91;5394389;26;20492;-79
2022/06/08 08:53:03;;;;;;;3.45;1.95;;;;;;;24.44;67.77;97439.84;5394664;26;20111;-78
2022/06/08 08:55:37;;;;;;;4.35;2.10;;;;;;;25.04;65.56;97437.56;5370248;26;20139;-77
2022/06/08 08:58:09;;;;;;;3.80;1.92;;;;;;;24.93;66.74;97445.81;5369585;26;20059;-77
2022/06/08 09:00:47;;;;;;;5.10;2.00;;;;;;;23.93;68.06;97447.09;5390354;26;20074;-79
2022/06/08 09:03:21;;;;;;;4.75;2.17;;;;;;;24.03;71.41;97449.53;5392486;26;20094;-79
2022/06/08 09:05:51;;;;;;;4.15;2.03;;;;;;;23.73;69.52;97449.22;5393038;26;20446;-79
2022/06/08 09:08:20;;;;;;;4.07;2.35;;;;;;;22.57;74.50;97444.59;5372979;26;20090;-79
2022/06/08 09:10:50;;;;;;;4.95;2.40;;;;;;;22.90;73.89;97443.81;5395351;26;20031;-79
2022/06/08 09:13:24;;;;;;;4.93;2.50;;;;;;;22.13;77.23;97442.00;5394318;26;20059;-79
2022/06/08 09:15:56;;;;;;;5.35;2.60;;;;;;;22.69;74.72;97446.81;5389973;26;20076;-80
2022/06/08 09:18:35;;;;;;;5.40;2.50;;;;;;;23.72;70.41;97447.56;5390288;26;20554;-80
2022/06/08 09:21:30;;;;;;;5.50;2.40;;;;;;;23.71;70.98;97445.06;5390656;26;20455;-79
2022/06/08 09:24:10;;;;;;;5.25;2.30;;;;;;;22.97;72.64;97454.53;5391130;26;20106;-79
2022/06/08 09:26:41;;;;;;;3.95;2.30;;;;;;;22.76;75.24;97454.91;5370734;26;20497;-79
2022/06/08 09:29:20;;;;;;;4.85;2.42;;;;;;;23.94;70.51;97448.75;5391002;26;20115;-79
2022/06/08 09:31:48;;;;;;;5.03;2.70;;;;;;;24.81;67.45;97452.47;5391065;26;20566;-79
2022/06/08 09:34:20;;;;;;;4.35;2.47;;;;;;;25.54;63.64;97441.63;5394112;26;20056;-79
2022/06/08 09:37:08;;;;;;;5.20;2.75;;;;;;;24.91;65.43;97447.00;5393845;26;20038;-79
2022/06/08 09:39:36;;;;;;;5.40;3.10;;;;;;;24.88;66.69;97439.41;5375437;26;20056;-79
2022/06/08 09:42:12;;;;;;;4.82;2.67;;;;;;;24.65;66.84;97439.28;5394733;26;20122;-79
2022/06/08 09:44:55;;;;;;;5.70;2.90;;;;;;;24.67;65.78;97432.87;5374972;26;20071;-79
2022/06/08 09:53:41;;;;;;;6.25;3.00;;;;;;;24.77;65.50;97436.12;5394293;26;20067;-79
2022/06/08 09:56:24;;;;;;;7.47;3.00;;;;;;;26.03;60.26;97446.56;5395399;26;20034;-79
2022/06/08 09:59:14;;;;;;;6.87;3.30;;;;;;;26.37;58.93;97447.97;5395584;26;20028;-79
2022/06/08 10:02:01;;;;;;;6.20;2.97;;;;;;;24.55;65.31;97447.37;5375841;26;20076;-79
2022/06/08 10:04:39;;;;;;;6.40;3.45;;;;;;;24.10;66.84;97437.38;5376792;26;20028;-79
2022/06/08 10:07:16;;;;;;;5.78;3.08;;;;;;;24.21;68.21;97443.13;5375786;26;20064;-79
2022/06/08 10:10:02;;;;;;;6.07;3.28;;;;;;;23.18;71.53;97439.19;5395227;26;20060;-79
2022/06/08 10:12:50;;;;;;;6.60;3.28;;;;;;;23.59;70.70;97431.38;5390699;26;20111;-80
2022/06/08 10:15:48;;;;;;;7.40;3.70;;;;;;;24.33;66.95;97438.38;5389930;26;20135;-79
2022/06/08 10:18:27;;;;;;;7.85;3.80;;;;;;;24.87;65.09;97437.75;5368055;26;20123;-79
2022/06/08 10:20:59;;;;;;;6.37;3.25;;;;;;;24.83;66.59;97434.63;5369442;26;20076;-79
2022/06/08 10:23:27;;;;;;;6.45;3.28;;;;;;;25.64;62.23;97436.94;5369747;26;20070;-79
2022/06/08 10:26:00;;;;;;;5.65;3.03;;;;;;;25.74;61.68;97428.00;5390079;26;20066;-79
2022/06/08 10:28:35;;;;;;;6.85;3.30;;;;;;;26.30;59.75;97439.91;5389983;26;20040;-80
2022/06/08 10:31:28;;;;;;;6.12;3.12;;;;;;;25.61;62.54;97428.50;5389131;26;20119;-79
2022/06/08 10:34:11;;;;;;;5.78;3.22;;;;;;;26.14;59.78;97440.87;5351504;26;20127;-79
2022/06/08 10:36:38;;;;;;;6.57;3.37;;;;;;;26.19;60.13;97435.88;5371271;26;20047;-80
2022/06/08 10:39:08;;;;;;;6.37;3.03;;;;;;;26.58;58.07;97440.16;5369637;26;20486;-80
2022/06/08 10:44:44;;;;;;;8.38;3.67;;;;;;;23.08;70.47;97430.59;5391120;26;20402;-80
2022/06/08 10:47:29;;;;;;;8.60;3.75;;;;;;;22.64;71.29;97428.03;5391506;26;20100;-79
2022/06/08 10:49:59;;;;;;;7.30;3.65;;;;;;;22.89;71.90;97426.38;5391192;26;20652;-79
2022/06/08 10:52:30;;;;;;;7.85;3.65;;;;;;;22.38;73.16;97430.66;5391143;26;20449;-79
2022/06/08 10:55:17;;;;;;;7.05;3.75;;;;;;;22.33;74.22;97418.97;5371757;26;20057;-79
2022/06/08 10:58:07;;;;;;;7.22;3.60;;;;;;;23.30;70.09;97422.09;5372348;26;20114;-79
2022/06/08 11:00:51;;;;;;;8.18;3.95;;;;;;;23.36;70.41;97421.44;5391237;26;20439;-79
2022/06/08 11:03:47;;;;;;;8.10;3.70;;;;;;;23.12;70.75;97418.75;5372293;26;20067;-79
2022/06/08 11:06:45;;;;;;;8.48;4.15;;;;;;;22.44;72.87;97424.81;5371075;26;20051;-79
2022/06/08 11:09:19;;;;;;;;;;;;;;;22.78;72.07;97424.81;5391470;26;20123;-79
2022/06/08 11:11:50;;;;;;;8.82;4.30;;;;;;;22.71;71.89;97431.69;5391479;26;20019;-79
2022/06/08 11:14:53;;;;;;;8.88;4.07;;;;;;;23.20;69.69;97426.69;5391219;26;20135;-79
2022/06/08 11:17:52;;;;;;;7.28;3.70;;;;;;;22.95;73.09;97432.81;5391851;26;20067;-79
2022/06/08 11:20:29;;;;;;;8.40;4.15;;;;;;;23.11;70.33;97427.63;5370839;26;20048;-79
2022/06/08 11:22:59;;;;;;;;;;;;;;;23.44;70.91;97422.47;5391707;26;20076;-79
2022/06/08 11:25:33;;;;;;;7.90;3.75;;;;;;;22.95;71.41;97417.84;5371279;26;20019;-79
2022/06/08 11:28:24;;;;;;;8.38;4.37;;;;;;;23.72;69.08;97413.31;5390713;26;20067;-79
2022/06/08 11:30:53;;;;;;;6.95;3.35;;;;;;;24.24;66.75;97405.91;5391167;26;20660;-80
2022/06/08 11:33:21;;;;;;;8.73;3.62;;;;;;;24.01;68.06;97404.91;5371138;26;20098;-79
2022/06/08 11:36:06;;;;;;;7.47;3.45;;;;;;;23.11;70.74;97398.69;5390597;26;20066;-79
2022/06/08 11:38:45;;;;;;;6.28;3.05;;;;;;;23.15;71.44;97400.00;5391019;26;20115;-79
2022/06/08 11:41:25;;;;;;;8.73;3.47;;;;;;;24.45;66.25;97401.91;5390501;26;20107;-79
2022/06/08 11:43:54;;;;;;;8.40;3.40;;;;;;;24.28;65.11;97395.03;5391058;26;20059;-79
2022/06/08 11:46:33;;;;;;;7.55;3.40;;;;;;;24.21;66.71;97395.69;5391128;26;20055;-79
2022/06/08 11:49:00;;;;;;;6.87;3.47;;;;;;;24.56;65.07;97395.47;5390616;26;20052;-79
2022/06/08 11:51:37;;;;;;;8.23;4.07;;;;;;;23.36;70.12;97389.84;5390881;26;20067;-79
2022/06/08 11:54:27;;;;;;;7.30;3.40;;;;;;;24.01;66.87;97385.66;5391275;26;20107;-78
2022/06/08 11:57:00;;;;;;;9.63;3.80;;;;;;;25.39;64.73;97382.59;5370582;26;20063;-79
2022/06/08 11:59:27;;;;;;;6.93;3.50;;;;;;;25.21;63.86;97382.06;5390862;26;20080;-78
2022/06/08 12:01:58;;;;;;;8.45;4.32;;;;;;;25.77;62.69;97375.59;5390671;26;20054;-78
2022/06/08 12:04:29;;;;;;;6.97;3.78;;;;;;;25.60;61.65;97368.75;5371193;26;20484;-77
2022/06/08 12:06:57;;;;;;;9.10;4.28;;;;;;;27.06;56.58;97374.47;5372051;26;20145;-78
2022/06/08 12:09:31;;;;;;;7.50;4.30;;;;;;;27.22;54.68;97366.31;5371965;26;20070;-77
2022/06/08 12:12:05;;;;;;;7.60;3.80;;;;;;;26.01;59.99;97371.09;5374003;26;20497;-77